Time;durP1;ratioP1;P1;durP2;ratioP2;P2;SDS_P1;SDS_P2;PMS_P1;PMS_P2;Temp;Humidity;BMP_temperature;BMP_pressure;BME280_temperature;BME280_humidity;BME280_pressure;Samples;Min_cycle;Max_cycle;Signal;HPM_P1;HPM_P2
2021/06/24 00:00:59;;;;;;;5.90;2.72;;;17.80;72.40;;;;;;5065057;28;20033;-62
2021/06/24 00:03:27;;;;;;;4.10;2.10;;;17.80;72.40;;;;;;5065311;28;20514;-63
2021/06/24 00:05:54;;;;;;;5.05;1.88;;;17.80;72.70;;;;;;5070080;28;20032;-63
2021/06/24 00:08:21;;;;;;;3.92;1.90;;;17.80;72.80;;;;;;5062831;28;20027;-63
2021/06/24 00:10:48;;;;;;;3.50;1.92;;;17.80;72.70;;;;;;5059969;28;20021;-62
2021/06/24 00:13:14;;;;;;;2.13;1.90;;;17.90;72.90;;;;;;5073344;28;20036;-62
2021/06/24 00:15:41;;;;;;;3.35;2.05;;;17.80;72.50;;;;;;5072753;28;20032;-62
2021/06/24 00:18:08;;;;;;;5.00;1.90;;;17.80;72.60;;;;;;5066342;28;20028;-63
2021/06/24 00:20:35;;;;;;;5.00;2.05;;;17.80;72.50;;;;;;5073630;28;20034;-63
2021/06/24 00:23:01;;;;;;;7.55;2.10;;;17.80;72.40;;;;;;5074640;28;20109;-63
2021/06/24 00:25:27;;;;;;;3.50;1.60;;;17.80;72.30;;;;;;5075137;28;20056;-63
2021/06/24 00:27:53;;;;;;;5.90;1.83;;;17.80;72.30;;;;;;5072299;28;20036;-63
2021/06/24 00:30:19;;;;;;;4.88;1.75;;;17.80;72.30;;;;;;5074006;28;20032;-62
2021/06/24 00:32:45;;;;;;;7.72;2.28;;;17.80;72.30;;;;;;5074019;28;20037;-63
2021/06/24 00:35:12;;;;;;;4.93;2.10;;;17.80;72.30;;;;;;5073795;28;20069;-63
2021/06/24 00:37:40;;;;;;;5.28;1.77;;;17.80;72.30;;;;;;5074214;28;20044;-63
2021/06/24 00:40:07;;;;;;;5.65;1.90;;;17.80;72.30;;;;;;5074652;28;20048;-63
2021/06/24 00:42:34;;;;;;;3.20;2.00;;;17.80;72.20;;;;;;5073559;28;20468;-62
2021/06/24 00:45:00;;;;;;;4.85;1.88;;;17.80;72.20;;;;;;5073119;28;20032;-63
2021/06/24 00:47:27;;;;;;;9.70;2.15;;;17.80;72.10;;;;;;5074107;28;20024;-63
2021/06/24 00:49:52;;;;;;;4.93;2.35;;;17.80;72.10;;;;;;5072544;28;20488;-63
2021/06/24 00:52:18;;;;;;;5.28;1.83;;;17.80;71.90;;;;;;5049917;28;20079;-63
2021/06/24 00:54:44;;;;;;;4.15;1.65;;;17.80;71.80;;;;;;5067539;28;20071;-63
2021/06/24 00:57:10;;;;;;;3.53;1.88;;;17.70;71.80;;;;;;5063386;28;20048;-63
2021/06/24 00:59:37;;;;;;;5.35;1.90;;;17.80;71.80;;;;;;5043358;28;20122;-63
2021/06/24 01:02:05;;;;;;;8.48;1.90;;;17.80;71.90;;;;;;5040778;28;20790;-63
2021/06/24 01:04:32;;;;;;;2.35;1.70;;;17.80;72.10;;;;;;5055989;28;20021;-63
2021/06/24 01:06:58;;;;;;;2.30;1.58;;;17.80;72.30;;;;;;5061370;28;20033;-63
2021/06/24 01:09:27;;;;;;;3.70;1.70;;;17.80;72.30;;;;;;5048954;28;20025;-63
2021/06/24 01:11:56;;;;;;;4.88;2.00;;;17.80;72.20;;;;;;5062294;28;20029;-63
2021/06/24 01:14:23;;;;;;;2.42;1.63;;;17.70;72.10;;;;;;5067731;28;20085;-63
2021/06/24 01:16:53;;;;;;;5.15;2.35;;;17.70;72.10;;;;;;5045365;28;20044;-63
2021/06/24 01:19:20;;;;;;;4.70;1.70;;;17.70;72.10;;;;;;5071806;28;20039;-63
2021/06/24 01:21:48;;;;;;;4.40;1.80;;;17.70;72.10;;;;;;5072025;28;20028;-63
2021/06/24 01:24:15;;;;;;;3.75;1.65;;;17.80;72.20;;;;;;5069659;28;20024;-63
2021/06/24 01:26:41;;;;;;;5.95;1.88;;;17.70;72.10;;;;;;5049401;28;20020;-63
2021/06/24 01:29:08;;;;;;;2.80;1.70;;;17.80;72.30;;;;;;5055086;28;20033;-63
2021/06/24 01:31:35;;;;;;;4.45;1.90;;;17.70;72.20;;;;;;5049466;28;20024;-63
2021/06/24 01:34:08;;;;;;;3.35;1.63;;;17.70;72.30;;;;;;5056017;28;20542;-63
2021/06/24 01:36:35;;;;;;;5.10;1.67;;;17.70;72.10;;;;;;5038289;28;20387;-62
2021/06/24 01:39:04;;;;;;;6.13;2.15;;;17.80;72.20;;;;;;5070088;28;20036;-63
2021/06/24 01:41:32;;;;;;;4.75;1.92;;;17.70;72.20;;;;;;5050645;28;20112;-63
2021/06/24 01:44:04;;;;;;;5.82;1.90;;;17.70;72.30;;;;;;5046026;28;20028;-63
2021/06/24 01:46:30;;;;;;;5.88;1.90;;;17.70;72.40;;;;;;5071507;28;20031;-63
2021/06/24 01:48:56;;;;;;;3.53;1.50;;;17.70;72.40;;;;;;5071565;28;20376;-63
2021/06/24 01:51:22;;;;;;;4.68;1.92;;;17.70;72.30;;;;;;5058818;28;20122;-63
2021/06/24 01:53:52;;;;;;;2.42;1.70;;;17.60;72.30;;;;;;5053519;28;20028;-62
2021/06/24 01:56:21;;;;;;;2.67;1.80;;;17.70;72.50;;;;;;5072956;28;20479;-63
2021/06/24 01:58:48;;;;;;;2.58;1.70;;;17.70;72.40;;;;;;5064654;28;20123;-63
2021/06/24 02:01:23;;;;;;;2.83;1.67;;;17.70;72.50;;;;;;5049269;28;20546;-63
2021/06/24 02:04:09;;;;;;;4.35;1.80;;;17.70;72.70;;;;;;5071486;28;20523;-63
2021/06/24 02:06:35;;;;;;;3.45;1.50;;;17.70;72.60;;;;;;5067235;28;20060;-63
2021/06/24 02:09:12;;;;;;;3.33;2.00;;;17.70;72.60;;;;;;5041666;28;20028;-62
2021/06/24 02:11:56;;;;;;;4.07;1.83;;;17.70;72.60;;;;;;5052079;28;20123;-63
2021/06/24 02:14:25;;;;;;;2.88;1.70;;;17.70;72.80;;;;;;5055956;28;20025;-62
2021/06/24 02:16:52;;;;;;;3.70;1.60;;;17.70;73.00;;;;;;5046802;28;20055;-63
2021/06/24 02:19:19;;;;;;;4.78;1.92;;;17.70;73.30;;;;;;5053322;28;20119;-63
2021/06/24 02:22:03;;;;;;;4.63;1.52;;;17.70;73.40;;;;;;5073178;28;20040;-63
2021/06/24 02:24:33;;;;;;;8.35;2.17;;;17.70;73.50;;;;;;5063760;28;20028;-63
2021/06/24 02:27:01;;;;;;;2.70;1.70;;;17.60;73.70;;;;;;5037576;28;20513;-63
2021/06/24 02:29:51;;;;;;;5.68;1.90;;;17.70;73.90;;;;;;5011357;28;20043;-63
2021/06/24 02:32:17;;;;;;;6.45;2.10;;;17.70;73.90;;;;;;5052927;28;20028;-63
2021/06/24 02:34:50;;;;;;;6.88;1.90;;;17.70;74.10;;;;;;5059186;28;20017;-62
2021/06/24 02:37:29;;;;;;;3.35;1.85;;;17.60;74.30;;;;;;5053817;28;20028;-63
2021/06/24 02:40:15;;;;;;;3.30;1.90;;;17.60;74.50;;;;;;5069435;28;20070;-63
2021/06/24 02:42:42;;;;;;;3.83;2.03;;;17.60;74.40;;;;;;5040306;28;20029;-63
2021/06/24 02:45:09;;;;;;;4.35;1.48;;;17.60;74.30;;;;;;5072045;28;20094;-63
2021/06/24 02:47:36;;;;;;;3.17;1.90;;;17.60;74.10;;;;;;5052246;28;20436;-63
2021/06/24 02:50:05;;;;;;;4.38;2.03;;;17.60;74.00;;;;;;5053415;28;20131;-63
2021/06/24 02:52:31;;;;;;;5.68;2.40;;;17.60;73.90;;;;;;5047130;28;20031;-63
2021/06/24 02:54:57;;;;;;;3.65;1.83;;;17.60;73.90;;;;;;5063790;28;20025;-62
2021/06/24 02:57:34;;;;;;;7.10;2.42;;;17.60;74.00;;;;;;5040949;28;20044;-63
2021/06/24 03:00:00;;;;;;;5.05;2.00;;;17.70;74.00;;;;;;5068627;28;20059;-62
2021/06/24 03:02:26;;;;;;;6.75;2.17;;;17.60;73.60;;;;;;5049197;28;20380;-63
2021/06/24 03:04:52;;;;;;;6.00;1.85;;;17.60;73.50;;;;;;5052659;28;20043;-63
2021/06/24 03:07:17;;;;;;;10.13;2.35;;;17.60;73.70;;;;;;5068086;28;20119;-63
2021/06/24 03:10:07;;;;;;;4.15;2.42;;;17.60;74.00;;;;;;5071220;28;20090;-63
2021/06/24 03:12:40;;;;;;;4.95;1.90;;;17.60;74.30;;;;;;5050967;28;20082;-62
2021/06/24 03:15:07;;;;;;;6.28;2.55;;;17.60;74.60;;;;;;5034229;28;20022;-63
2021/06/24 03:17:35;;;;;;;5.03;2.40;;;17.60;74.80;;;;;;5046813;28;20029;-62
2021/06/24 03:20:04;;;;;;;3.78;1.92;;;17.60;74.90;;;;;;5054846;28;20037;-63
2021/06/24 03:22:31;;;;;;;8.10;2.05;;;17.60;74.80;;;;;;5067544;28;20491;-63
2021/06/24 03:24:59;;;;;;;4.60;2.00;;;17.60;74.80;;;;;;5057143;28;20093;-63
2021/06/24 03:27:30;;;;;;;5.17;2.17;;;17.60;74.70;;;;;;5057860;28;20123;-63
2021/06/24 03:30:15;;;;;;;3.78;1.95;;;17.60;74.70;;;;;;5054792;28;20071;-63
2021/06/24 03:32:42;;;;;;;5.43;2.22;;;17.60;74.60;;;;;;5051019;28;20024;-62
2021/06/24 03:35:09;;;;;;;9.15;1.95;;;17.60;74.60;;;;;;5057431;28;20027;-63
2021/06/24 03:37:38;;;;;;;2.78;2.08;;;17.60;74.60;;;;;;5056105;28;20032;-63
2021/06/24 03:40:06;;;;;;;4.28;1.95;;;17.60;74.50;;;;;;5057254;28;20032;-63
2021/06/24 03:42:32;;;;;;;4.03;2.13;;;17.60;74.50;;;;;;5051621;28;20504;-63
2021/06/24 03:44:58;;;;;;;5.10;1.90;;;17.60;74.60;;;;;;5057034;28;20052;-63
2021/06/24 03:47:24;;;;;;;4.72;1.80;;;17.60;74.60;;;;;;5048486;28;20031;-63
2021/06/24 03:49:50;;;;;;;4.00;2.00;;;17.60;74.50;;;;;;5058042;28;20395;-63
2021/06/24 03:52:17;;;;;;;3.72;1.80;;;17.60;74.50;;;;;;5053452;28;20464;-62
2021/06/24 03:54:43;;;;;;;7.30;2.00;;;17.60;74.70;;;;;;5072459;28;20032;-63
2021/06/24 03:57:09;;;;;;;5.63;2.00;;;17.60;74.70;;;;;;5051075;28;20021;-63
2021/06/24 03:59:52;;;;;;;2.88;1.88;;;17.60;74.80;;;;;;5053883;28;20188;-62
2021/06/24 04:02:19;;;;;;;6.53;1.80;;;17.50;75.00;;;;;;5057444;28;20103;-63
2021/06/24 04:04:45;;;;;;;5.10;1.83;;;17.50;75.40;;;;;;5072711;28;20021;-63
2021/06/24 04:07:12;;;;;;;2.63;1.60;;;17.50;75.50;;;;;;5069838;28;20031;-63
2021/06/24 04:09:38;;;;;;;3.83;1.90;;;17.50;75.60;;;;;;5048176;28;20021;-62
2021/06/24 04:12:04;;;;;;;3.85;1.90;;;17.50;75.50;;;;;;5055979;28;20536;-63
2021/06/24 04:14:58;;;;;;;4.90;2.00;;;17.50;75.40;;;;;;5047266;28;20020;-62
2021/06/24 04:17:29;;;;;;;3.95;1.70;;;17.50;75.40;;;;;;5059902;28;20028;-63
2021/06/24 04:19:55;;;;;;;2.33;1.80;;;17.50;75.30;;;;;;5069855;28;20037;-63
2021/06/24 04:22:21;;;;;;;6.70;1.80;;;17.50;75.20;;;;;;5069405;28;20028;-63
2021/06/24 04:25:10;;;;;;;5.95;1.88;;;17.50;75.10;;;;;;5048950;28;20119;-62
2021/06/24 04:27:36;;;;;;;4.75;2.60;;;17.50;75.00;;;;;;5052125;28;20135;-63
2021/06/24 04:30:05;;;;;;;5.90;2.70;;;17.50;74.90;;;;;;5056522;28;20383;-63
2021/06/24 04:32:33;;;;;;;6.68;2.35;;;17.50;74.90;;;;;;5054292;28;20054;-62
2021/06/24 04:34:59;;;;;;;5.78;2.05;;;17.40;74.90;;;;;;5045138;28;20028;-63
2021/06/24 04:37:25;;;;;;;5.90;2.55;;;17.40;74.90;;;;;;5070219;28;20720;-62
2021/06/24 04:39:51;;;;;;;6.72;2.92;;;17.40;74.90;;;;;;5054959;28;20392;-63
2021/06/24 04:42:20;;;;;;;5.45;2.97;;;17.50;74.70;;;;;;5063287;28;20025;-62
2021/06/24 04:45:18;;;;;;;4.40;2.60;;;17.50;74.50;;;;;;5051708;28;20044;-62
2021/06/24 04:47:54;;;;;;;4.30;2.10;;;17.50;74.30;;;;;;5053715;28;20025;-63
2021/06/24 04:50:20;;;;;;;6.72;2.50;;;17.50;74.40;;;;;;5046618;28;20047;-62
2021/06/24 04:52:54;;;;;;;6.38;2.15;;;17.40;74.40;;;;;;5053291;28;20095;-62
2021/06/24 04:55:40;;;;;;;4.68;2.08;;;17.40;74.60;;;;;;5033862;28;20496;-62
2021/06/24 04:58:14;;;;;;;4.63;1.80;;;17.50;74.70;;;;;;5041976;28;20021;-62
2021/06/24 05:00:58;;;;;;;5.43;1.95;;;17.40;74.70;;;;;;5049543;28;20109;-62
2021/06/24 05:03:42;;;;;;;4.10;2.05;;;17.40;74.50;;;;;;5051973;28;20032;-62
2021/06/24 05:06:10;;;;;;;5.25;1.63;;;17.50;74.50;;;;;;5052895;28;20029;-62
2021/06/24 05:08:36;;;;;;;5.15;1.60;;;17.40;74.30;;;;;;5040299;28;20030;-62
2021/06/24 05:11:02;;;;;;;3.10;1.65;;;17.50;74.30;;;;;;5041640;28;20021;-60
2021/06/24 05:13:28;;;;;;;2.50;1.40;;;17.50;74.40;;;;;;5053109;28;20365;-62
2021/06/24 05:15:54;;;;;;;2.80;1.58;;;17.50;74.40;;;;;;5029994;28;20032;-68
2021/06/24 05:18:19;;;;;;;6.07;1.60;;;17.50;74.50;;;;;;5049876;28;20390;-65
2021/06/24 05:20:46;;;;;;;4.10;1.55;;;17.50;74.40;;;;;;5052813;28;20039;-65
2021/06/24 05:23:16;;;;;;;3.25;1.40;;;17.50;74.30;;;;;;5050498;28;20031;-62
2021/06/24 05:25:43;;;;;;;1.95;1.30;;;17.50;74.30;;;;;;5050316;28;20025;-62
2021/06/24 05:28:09;;;;;;;1.65;1.35;;;17.50;74.10;;;;;;5051386;28;20025;-62
2021/06/24 05:30:35;;;;;;;6.47;1.50;;;17.50;74.20;;;;;;5047888;28;20032;-64
2021/06/24 05:33:02;;;;;;;5.55;1.20;;;17.50;74.10;;;;;;5051554;28;20377;-64
2021/06/24 05:35:28;;;;;;;2.58;1.48;;;17.50;74.10;;;;;;5052249;28;20500;-63
2021/06/24 05:37:54;;;;;;;3.55;1.30;;;17.50;74.10;;;;;;5049638;28;20057;-63
2021/06/24 05:40:21;;;;;;;5.88;1.38;;;17.50;74.10;;;;;;5052358;28;20075;-62
2021/06/24 05:42:47;;;;;;;2.42;1.42;;;17.50;74.00;;;;;;5052250;28;20035;-64
2021/06/24 05:45:13;;;;;;;1.40;1.30;;;17.50;73.70;;;;;;5051599;28;20045;-64
2021/06/24 05:47:39;;;;;;;5.93;1.30;;;17.50;73.70;;;;;;5045541;28;20032;-65
2021/06/24 05:50:05;;;;;;;2.50;1.30;;;17.50;73.60;;;;;;5052957;28;20102;-65
2021/06/24 05:52:31;;;;;;;3.08;1.38;;;17.50;73.60;;;;;;5061238;28;20507;-64
2021/06/24 05:54:56;;;;;;;2.28;1.30;;;17.50;73.40;;;;;;5070092;28;20107;-64
2021/06/24 05:57:22;;;;;;;2.45;1.20;;;17.60;73.50;;;;;;5070277;28;20349;-64
2021/06/24 05:59:48;;;;;;;2.45;1.30;;;17.50;73.40;;;;;;5070022;28;20434;-64
2021/06/24 06:02:14;;;;;;;2.83;1.17;;;17.60;73.40;;;;;;5072173;28;20417;-64
2021/06/24 06:04:39;;;;;;;2.50;1.33;;;17.60;73.20;;;;;;5069807;28;20031;-65
2021/06/24 06:07:05;;;;;;;1.38;1.10;;;17.60;73.20;;;;;;5066258;28;20099;-66
2021/06/24 06:09:31;;;;;;;5.10;1.35;;;17.60;73.00;;;;;;5071646;28;20108;-66
2021/06/24 06:11:57;;;;;;;3.63;1.23;;;17.60;72.90;;;;;;5071369;28;20369;-67
2021/06/24 06:14:22;;;;;;;1.88;1.05;;;17.60;72.90;;;;;;5070654;28;20414;-67
2021/06/24 06:16:48;;;;;;;4.03;1.20;;;17.60;72.70;;;;;;5070469;28;20028;-67
2021/06/24 06:19:14;;;;;;;2.92;1.10;;;17.60;72.60;;;;;;5066608;28;20067;-66
2021/06/24 06:21:40;;;;;;;1.40;1.00;;;17.70;72.40;;;;;;5068097;28;20388;-65
2021/06/24 06:24:06;;;;;;;3.90;1.52;;;17.70;72.30;;;;;;5068719;28;20020;-66
2021/06/24 06:26:32;;;;;;;1.40;1.30;;;17.70;72.30;;;;;;5066699;28;20024;-65
2021/06/24 06:29:03;;;;;;;3.33;1.45;;;17.70;72.40;;;;;;5066211;28;20036;-65
2021/06/24 06:31:30;;;;;;;1.33;1.13;;;17.80;72.40;;;;;;5065524;28;20054;-65
2021/06/24 06:33:56;;;;;;;3.08;1.42;;;17.80;72.40;;;;;;5065957;28;20095;-65
2021/06/24 06:36:22;;;;;;;6.70;1.30;;;17.80;72.50;;;;;;5066745;28;20361;-64
2021/06/24 06:38:47;;;;;;;3.40;1.27;;;17.80;72.40;;;;;;5070221;28;20043;-65
2021/06/24 06:41:13;;;;;;;4.72;1.52;;;17.80;72.30;;;;;;5069137;28;20020;-64
2021/06/24 06:43:39;;;;;;;4.22;1.30;;;17.80;72.20;;;;;;5053759;28;20448;-64
2021/06/24 06:46:04;;;;;;;2.10;1.40;;;17.80;72.10;;;;;;5067954;28;20035;-65
2021/06/24 06:48:30;;;;;;;2.60;1.27;;;17.90;72.20;;;;;;5067455;28;20028;-65
2021/06/24 06:50:56;;;;;;;1.40;1.27;;;17.90;72.10;;;;;;5068621;28;21728;-64
2021/06/24 06:53:23;;;;;;;3.35;1.40;;;17.90;71.80;;;;;;5066948;28;20033;-65
2021/06/24 06:55:49;;;;;;;3.60;1.27;;;17.90;72.10;;;;;;5071991;28;20028;-65
2021/06/24 06:58:15;;;;;;;2.20;1.60;;;17.90;72.20;;;;;;5064040;28;20051;-65
2021/06/24 07:00:41;;;;;;;4.47;1.25;;;18.00;72.30;;;;;;5076706;28;20029;-64
2021/06/24 07:03:07;;;;;;;2.55;1.08;;;18.00;72.20;;;;;;5066363;28;20421;-65
2021/06/24 07:05:33;;;;;;;4.85;1.20;;;18.00;72.30;;;;;;5068269;28;20086;-65
2021/06/24 07:07:59;;;;;;;6.50;2.60;;;18.00;72.20;;;;;;5075948;28;20017;-64
2021/06/24 07:10:25;;;;;;;1.20;1.10;;;18.00;72.20;;;;;;5065784;28;20036;-65
2021/06/24 07:12:51;;;;;;;1.38;1.10;;;18.10;72.40;;;;;;5060401;28;20028;-65
2021/06/24 07:15:17;;;;;;;3.38;1.63;;;18.10;72.40;;;;;;5076329;28;20032;-65
2021/06/24 07:17:43;;;;;;;3.47;1.65;;;18.10;72.40;;;;;;5077016;28;20028;-65
2021/06/24 07:20:10;;;;;;;1.60;0.93;;;18.10;72.40;;;;;;5065471;28;20040;-65
2021/06/24 07:22:37;;;;;;;4.45;1.50;;;18.10;72.20;;;;;;5066639;28;20028;-65
2021/06/24 07:25:04;;;;;;;1.73;1.20;;;18.10;72.00;;;;;;5075616;28;20036;-65
2021/06/24 07:27:30;;;;;;;3.50;1.40;;;18.20;72.00;;;;;;5070934;28;20387;-65
2021/06/24 07:29:56;;;;;;;1.25;1.08;;;18.20;71.70;;;;;;5058502;28;20021;-65
2021/06/24 07:32:21;;;;;;;2.35;1.30;;;18.20;71.90;;;;;;5072834;28;20070;-64
2021/06/24 07:34:47;;;;;;;2.78;1.20;;;18.30;71.80;;;;;;5076434;28;20047;-65
2021/06/24 07:37:13;;;;;;;1.98;1.33;;;18.30;71.50;;;;;;5074476;28;20036;-65
2021/06/24 07:39:38;;;;;;;1.30;1.05;;;18.30;71.60;;;;;;5070095;28;20037;-65
2021/06/24 07:42:04;;;;;;;2.95;1.10;;;18.30;71.60;;;;;;5076107;28;20059;-65
2021/06/24 07:44:30;;;;;;;1.52;1.10;;;18.30;71.40;;;;;;5066736;28;20088;-65
2021/06/24 07:46:56;;;;;;;2.60;1.10;;;18.40;71.40;;;;;;5063032;28;20037;-65
2021/06/24 07:49:23;;;;;;;3.75;1.55;;;18.40;71.30;;;;;;5063614;28;20040;-65
2021/06/24 07:51:49;;;;;;;3.83;1.30;;;18.40;70.90;;;;;;5076904;28;20472;-65
2021/06/24 07:54:15;;;;;;;5.75;1.90;;;18.50;71.00;;;;;;5069225;28;20152;-65
2021/06/24 07:56:42;;;;;;;1.65;1.10;;;18.50;71.00;;;;;;5068869;28;20029;-65
2021/06/24 07:59:11;;;;;;;1.20;1.10;;;18.50;70.80;;;;;;5074986;28;20090;-65
2021/06/24 08:01:38;;;;;;;2.55;1.63;;;18.50;70.60;;;;;;5076970;28;20090;-65
2021/06/24 08:04:06;;;;;;;2.90;1.10;;;18.50;70.40;;;;;;5068974;28;20029;-65
2021/06/24 08:06:32;;;;;;;3.47;1.10;;;18.60;70.70;;;;;;5069903;28;20032;-65
2021/06/24 08:08:58;;;;;;;1.30;1.00;;;18.60;70.70;;;;;;5074161;28;20028;-65
2021/06/24 08:11:23;;;;;;;4.95;2.13;;;18.60;71.00;;;;;;5074171;28;20460;-65
2021/06/24 08:13:49;;;;;;;2.45;1.25;;;18.70;71.00;;;;;;5057927;28;20024;-65
2021/06/24 08:16:16;;;;;;;1.23;1.15;;;18.70;70.80;;;;;;5075048;28;20032;-65
2021/06/24 08:18:42;;;;;;;2.63;2.20;;;18.70;71.10;;;;;;5072517;28;20378;-65
2021/06/24 08:21:08;;;;;;;8.10;1.13;;;18.80;71.00;;;;;;5055627;28;20031;-64
2021/06/24 08:23:34;;;;;;;2.25;1.02;;;18.70;70.70;;;;;;5063796;28;20486;-65
2021/06/24 08:26:00;;;;;;;2.35;1.38;;;18.80;70.90;;;;;;5066271;28;20116;-65
2021/06/24 08:28:26;;;;;;;2.28;1.10;;;18.80;70.60;;;;;;5067931;28;20036;-65
2021/06/24 08:30:53;;;;;;;1.58;1.15;;;18.80;70.70;;;;;;5067103;28;20036;-65
2021/06/24 08:33:18;;;;;;;2.88;1.65;;;18.80;70.80;;;;;;5059073;28;20464;-65
2021/06/24 08:35:44;;;;;;;1.83;1.48;;;18.90;71.00;;;;;;5059498;28;20060;-65
2021/06/24 08:38:11;;;;;;;1.58;1.00;;;18.90;71.00;;;;;;5069059;28;20040;-65
2021/06/24 08:40:39;;;;;;;2.78;1.40;;;18.90;70.80;;;;;;5053246;28;20036;-65
2021/06/24 08:43:06;;;;;;;5.32;0.98;;;19.00;70.80;;;;;;5071787;28;20094;-65
2021/06/24 08:45:31;;;;;;;1.77;1.08;;;19.00;70.70;;;;;;5074410;28;20043;-65
2021/06/24 08:47:59;;;;;;;14.52;1.20;;;19.00;70.60;;;;;;5071967;28;20442;-65
2021/06/24 08:50:26;;;;;;;1.10;1.10;;;19.00;70.50;;;;;;5072960;28;20182;-65
2021/06/24 08:52:52;;;;;;;1.65;0.90;;;19.10;70.50;;;;;;5072957;28;20040;-65
2021/06/24 08:55:19;;;;;;;5.18;1.20;;;19.10;70.50;;;;;;5063491;28;20389;-65
2021/06/24 08:57:45;;;;;;;3.38;1.10;;;19.10;70.40;;;;;;5068028;28;20032;-65
2021/06/24 09:00:11;;;;;;;2.72;1.15;;;19.10;70.10;;;;;;5070959;28;20044;-65
2021/06/24 09:02:47;;;;;;;3.20;1.55;;;19.20;70.30;;;;;;5073518;28;20085;-65
2021/06/24 09:05:14;;;;;;;2.72;1.10;;;19.20;70.40;;;;;;5069487;28;20021;-65
2021/06/24 09:07:53;;;;;;;1.20;0.95;;;19.20;70.40;;;;;;5071279;28;20356;-65
2021/06/24 09:10:21;;;;;;;3.42;1.13;;;19.30;70.00;;;;;;5071842;28;20030;-65
2021/06/24 09:12:56;;;;;;;2.65;1.30;;;19.30;69.90;;;;;;5064744;28;20480;-65
2021/06/24 09:15:25;;;;;;;2.60;0.82;;;19.30;70.00;;;;;;5069815;28;20403;-65
2021/06/24 09:17:51;;;;;;;0.85;0.85;;;19.30;69.90;;;;;;5072542;28;20403;-64
2021/06/24 09:20:19;;;;;;;1.92;1.10;;;19.30;70.40;;;;;;5061300;28;20552;-60
2021/06/24 09:23:08;;;;;;;1.00;1.00;;;19.40;70.60;;;;;;5069988;28;20028;-63
2021/06/24 09:25:38;;;;;;;2.08;1.13;;;19.30;70.60;;;;;;5073637;28;20081;-63
2021/06/24 09:28:05;;;;;;;1.65;1.20;;;19.30;70.70;;;;;;5071954;28;20024;-63
2021/06/24 10:09:20;;;;;;;1.63;1.17;;;17.80;74.90;;;;;;5125433;27;20719;-61
2021/06/24 10:11:47;;;;;;;2.47;1.15;;;19.20;71.60;;;;;;5128146;27;20523;-61
2021/06/24 10:14:15;;;;;;;2.08;1.00;;;19.40;71.30;;;;;;5126257;27;20022;-61
2021/06/24 10:16:43;;;;;;;1.85;1.65;;;19.50;71.40;;;;;;5128262;27;20445;-62
2021/06/24 10:19:12;;;;;;;4.50;1.10;;;19.60;70.90;;;;;;5119500;27;20028;-62
2021/06/24 10:21:38;;;;;;;5.00;1.20;;;19.70;70.40;;;;;;5134821;27;20030;-61
2021/06/24 10:24:17;;;;;;;1.27;1.17;;;19.80;70.20;;;;;;5128908;27;20062;-62
2021/06/24 10:26:46;;;;;;;2.75;1.13;;;19.80;70.00;;;;;;5121534;27;20042;-62
2021/06/24 10:29:17;;;;;;;3.08;1.13;;;19.80;69.30;;;;;;5126341;27;20394;-74
2021/06/24 10:31:45;;;;;;;1.48;1.13;;;19.90;68.70;;;;;;5128636;27;20103;-61
2021/06/24 10:34:12;;;;;;;2.42;1.20;;;19.90;69.40;;;;;;5127586;27;20031;-62
2021/06/24 10:36:39;;;;;;;0.85;0.85;;;20.00;70.30;;;;;;5128079;27;20110;-62
2021/06/24 10:39:06;;;;;;;1.08;1.00;;;20.00;70.00;;;;;;5134435;27;20031;-62
2021/06/24 10:42:15;;;;;;;2.10;1.05;;;20.10;70.10;;;;;;5131266;27;20110;-62
2021/06/24 10:45:01;;;;;;;7.05;1.65;;;20.10;69.60;;;;;;5116354;27;20043;-62
2021/06/24 10:47:31;;;;;;;3.30;1.40;;;20.20;69.50;;;;;;5123435;27;20113;-62
2021/06/24 10:53:13;;;;;;;1.58;0.88;;;20.20;69.30;;;;;;5129862;27;20085;-60
2021/06/24 10:55:41;;;;;;;1.33;1.00;;;20.30;69.20;;;;;;5108994;27;20067;-59
2021/06/24 10:58:12;;;;;;;1.20;1.10;;;20.30;69.00;;;;;;5131809;27;20043;-62
2021/06/24 11:00:38;;;;;;;1.85;1.13;;;20.40;68.80;;;;;;5130999;27;20378;-62
2021/06/24 11:03:06;;;;;;;2.88;1.40;;;20.40;68.60;;;;;;5128608;27;20027;-62
2021/06/24 11:05:41;;;;;;;1.13;0.82;;;20.50;68.70;;;;;;5128638;27;20412;-62
2021/06/24 11:08:11;;;;;;;2.22;1.30;;;20.50;68.40;;;;;;5132044;27;20052;-62
2021/06/24 11:10:55;;;;;;;1.88;1.10;;;20.60;67.60;;;;;;5113529;28;20046;-68
2021/06/24 11:16:24;;;;;;;3.30;0.95;;;20.70;68.00;;;;;;5116626;27;20115;-61
2021/06/24 11:18:52;;;;;;;1.40;1.30;;;20.70;67.70;;;;;;5103873;28;20035;-60
2021/06/24 11:21:21;;;;;;;2.60;1.00;;;20.70;67.50;;;;;;5116478;27;20019;-59
2021/06/24 11:24:15;;;;;;;2.40;1.20;;;20.80;67.60;;;;;;5115760;27;20035;-58
2021/06/24 11:26:44;;;;;;;2.10;1.40;;;20.80;67.10;;;;;;5113760;27;20043;-59
2021/06/24 11:32:21;;;;;;;3.65;1.50;;;20.90;66.10;;;;;;5094277;27;20035;-59
2021/06/24 11:34:59;;;;;;;2.35;1.40;;;20.90;67.10;;;;;;5121094;27;20027;-60
2021/06/24 11:37:28;;;;;;;2.47;1.40;;;20.90;67.00;;;;;;5112495;27;20489;-60
2021/06/24 11:40:00;;;;;;;1.42;1.23;;;20.90;67.20;;;;;;5116913;27;20470;-60
2021/06/24 11:42:36;;;;;;;5.10;1.60;;;21.00;67.70;;;;;;5119991;27;20049;-60
2021/06/24 11:45:05;;;;;;;2.88;1.60;;;21.00;67.70;;;;;;5117488;27;20062;-60
2021/06/24 11:47:33;;;;;;;2.53;1.50;;;21.00;67.80;;;;;;5112649;27;20305;-59
2021/06/24 12:04:09;;;;;;;1.75;1.20;;;21.10;68.80;;;;;;5120180;27;20027;-60
2021/06/24 12:07:07;;;;;;;5.88;1.40;;;21.10;68.80;;;;;;5109630;27;20076;-60
2021/06/24 12:09:50;;;;;;;2.75;1.40;;;21.20;68.80;;;;;;5113367;27;20073;-60
2021/06/24 12:12:26;;;;;;;2.38;1.27;;;21.20;68.80;;;;;;5113395;28;20046;-61
2021/06/24 12:14:57;;;;;;;3.85;1.38;;;21.30;68.40;;;;;;5110874;27;20119;-61
2021/06/24 12:17:31;;;;;;;1.20;1.08;;;21.30;68.80;;;;;;5114667;27;20019;-59
2021/06/24 12:19:56;;;;;;;4.85;1.17;;;21.30;69.00;;;;;;5112406;27;20070;-59
2021/06/24 12:22:31;;;;;;;2.20;1.25;;;21.30;69.10;;;;;;5111199;28;20047;-60
2021/06/24 12:24:58;;;;;;;0.85;0.75;;;21.40;69.50;;;;;;5113295;27;20095;-59
2021/06/24 12:27:32;;;;;;;1.58;1.00;;;21.40;70.30;;;;;;5121452;27;20039;-59
2021/06/24 12:30:25;;;;;;;1.75;0.88;;;21.50;70.10;;;;;;5105399;28;20080;-59
2021/06/24 12:32:51;;;;;;;1.48;0.93;;;21.50;70.00;;;;;;5067566;28;20082;-60
2021/06/24 12:35:31;;;;;;;2.95;1.02;;;21.50;70.10;;;;;;5114302;27;20032;-60
2021/06/24 12:38:02;;;;;;;0.95;0.82;;;21.50;70.00;;;;;;5116377;27;20500;-60
2021/06/24 12:40:43;;;;;;;3.60;1.00;;;21.60;69.80;;;;;;5117252;27;20042;-60
2021/06/24 12:43:17;;;;;;;1.30;1.20;;;21.60;69.90;;;;;;5118410;27;20034;-60
2021/06/24 12:45:44;;;;;;;2.30;1.10;;;21.70;69.70;;;;;;5086148;28;20118;-60
2021/06/24 12:48:36;;;;;;;2.83;1.08;;;21.70;69.00;;;;;;5112718;28;20034;-61
2021/06/24 12:51:05;;;;;;;1.98;1.10;;;21.80;69.40;;;;;;5097455;27;20015;-60
2021/06/24 12:53:32;;;;;;;3.83;1.10;;;21.80;68.90;;;;;;5113916;27;20034;-60
2021/06/24 12:55:59;;;;;;;4.88;1.05;;;21.90;68.80;;;;;;5114986;27;20437;-60
2021/06/24 12:58:25;;;;;;;2.88;1.10;;;21.90;69.00;;;;;;5116022;27;20042;-60
2021/06/24 13:01:08;;;;;;;1.30;0.80;;;22.00;69.10;;;;;;5116264;27;20020;-60
2021/06/24 13:03:40;;;;;;;0.63;0.63;;;22.00;66.40;;;;;;5090968;28;20031;-60
2021/06/24 13:06:13;;;;;;;1.63;0.90;;;22.00;65.40;;;;;;5110740;27;20031;-60
2021/06/24 13:09:07;;;;;;;1.70;1.10;;;22.00;65.00;;;;;;5121231;27;20047;-60
2021/06/24 13:11:40;;;;;;;2.55;1.20;;;22.00;64.60;;;;;;5111880;27;20027;-60
2021/06/24 13:14:20;;;;;;;3.08;1.17;;;22.00;65.20;;;;;;5111457;27;20067;-60
2021/06/24 13:17:01;;;;;;;2.22;1.13;;;22.00;65.10;;;;;;5110912;27;20402;-61
2021/06/24 13:19:38;;;;;;;1.05;0.93;;;22.00;65.30;;;;;;5117477;27;20023;-61
2021/06/24 13:22:09;;;;;;;2.38;1.10;;;22.00;65.60;;;;;;5109866;27;20035;-61
2021/06/24 13:24:49;;;;;;;1.35;0.95;;;22.00;66.00;;;;;;5112901;27;20027;-62
2021/06/24 13:27:46;;;;;;;2.15;0.90;;;22.00;66.00;;;;;;5110692;27;20040;-60
2021/06/24 13:30:16;;;;;;;4.00;1.15;;;22.00;64.90;;;;;;5115083;27;20065;-61
2021/06/24 13:32:44;;;;;;;0.93;0.90;;;22.00;63.90;;;;;;5114431;27;20436;-61
2021/06/24 13:35:19;;;;;;;5.80;1.10;;;22.00;64.00;;;;;;5119760;27;20024;-61
2021/06/24 13:37:58;;;;;;;1.52;1.00;;;22.00;63.70;;;;;;5116559;27;20032;-62
2021/06/24 13:40:25;;;;;;;2.25;1.00;;;22.00;64.00;;;;;;5112815;27;20028;-60
2021/06/24 13:42:53;;;;;;;2.20;1.15;;;22.00;64.50;;;;;;5115024;28;20087;-60
2021/06/24 13:45:19;;;;;;;2.53;1.10;;;22.00;64.40;;;;;;5116414;27;20023;-60
2021/06/24 13:47:45;;;;;;;1.58;0.90;;;22.00;63.90;;;;;;5119006;27;20043;-73
2021/06/24 13:50:11;;;;;;;1.38;1.15;;;22.00;63.80;;;;;;5109453;28;20080;-68
2021/06/24 13:52:37;;;;;;;5.40;1.17;;;22.10;64.60;;;;;;5112509;28;20038;-68
2021/06/24 13:55:04;;;;;;;1.27;1.17;;;22.10;64.20;;;;;;5119461;28;20103;-66
2021/06/24 13:57:29;;;;;;;1.13;1.00;;;22.10;63.70;;;;;;5108682;28;20036;-66
2021/06/24 13:59:55;;;;;;;1.20;1.00;;;22.10;63.80;;;;;;5090543;28;20428;-66
2021/06/24 14:02:21;;;;;;;1.05;0.95;;;22.10;64.10;;;;;;5118397;28;20043;-66